sensor_id;sensor_type;location;lat;lon;timestamp;P1;durP1;ratioP1;P2;durP2;ratioP2
5967;SDS011;3010;51.028;4.170;2023-06-10T00:01:50;8.70;;;8.00;;
5967;SDS011;3010;51.028;4.170;2023-06-10T00:04:17;8.73;;;8.07;;
5967;SDS011;3010;51.028;4.170;2023-06-10T00:06:43;8.57;;;7.78;;
5967;SDS011;3010;51.028;4.170;2023-06-10T00:09:10;9.43;;;8.13;;
5967;SDS011;3010;51.028;4.170;2023-06-10T00:11:37;9.77;;;8.80;;
5967;SDS011;3010;51.028;4.170;2023-06-10T00:14:03;8.20;;;7.70;;
5967;SDS011;3010;51.028;4.170;2023-06-10T00:16:30;9.47;;;8.67;;
5967;SDS011;3010;51.028;4.170;2023-06-10T00:18:56;9.17;;;8.33;;
5967;SDS011;3010;51.028;4.170;2023-06-10T00:21:29;9.43;;;8.63;;
5967;SDS011;3010;51.028;4.170;2023-06-10T00:23:55;9.07;;;8.27;;
5967;SDS011;3010;51.028;4.170;2023-06-10T00:26:22;9.40;;;8.00;;
5967;SDS011;3010;51.028;4.170;2023-06-10T00:28:48;8.97;;;8.13;;
5967;SDS011;3010;51.028;4.170;2023-06-10T00:31:15;10.83;;;8.03;;
5967;SDS011;3010;51.028;4.170;2023-06-10T00:33:41;9.07;;;8.37;;
5967;SDS011;3010;51.028;4.170;2023-06-10T00:36:08;9.27;;;8.37;;
5967;SDS011;3010;51.028;4.170;2023-06-10T00:38:35;9.23;;;8.30;;
5967;SDS011;3010;51.028;4.170;2023-06-10T00:41:01;8.60;;;7.83;;
5967;SDS011;3010;51.028;4.170;2023-06-10T00:43:28;15.43;;;8.60;;
5967;SDS011;3010;51.028;4.170;2023-06-10T00:45:54;9.33;;;8.50;;
5967;SDS011;3010;51.028;4.170;2023-06-10T00:48:21;9.00;;;8.30;;
5967;SDS011;3010;51.028;4.170;2023-06-10T00:50:48;9.57;;;8.67;;
5967;SDS011;3010;51.028;4.170;2023-06-10T00:53:14;9.50;;;8.50;;
5967;SDS011;3010;51.028;4.170;2023-06-10T00:55:41;9.00;;;8.30;;
5967;SDS011;3010;51.028;4.170;2023-06-10T00:58:07;9.67;;;8.97;;
5967;SDS011;3010;51.028;4.170;2023-06-10T01:00:34;8.88;;;8.07;;
5967;SDS011;3010;51.028;4.170;2023-06-10T01:03:01;9.80;;;9.10;;
5967;SDS011;3010;51.028;4.170;2023-06-10T01:05:27;10.57;;;9.00;;
5967;SDS011;3010;51.028;4.170;2023-06-10T01:10:41;10.97;;;8.53;;
5967;SDS011;3010;51.028;4.170;2023-06-10T01:13:09;9.20;;;8.40;;
5967;SDS011;3010;51.028;4.170;2023-06-10T01:15:34;9.20;;;8.40;;
5967;SDS011;3010;51.028;4.170;2023-06-10T01:18:02;9.40;;;8.47;;
5967;SDS011;3010;51.028;4.170;2023-06-10T01:20:28;10.40;;;9.33;;
5967;SDS011;3010;51.028;4.170;2023-06-10T01:22:54;11.53;;;9.57;;
5967;SDS011;3010;51.028;4.170;2023-06-10T01:25:21;9.73;;;8.77;;
5967;SDS011;3010;51.028;4.170;2023-06-10T01:27:47;10.30;;;9.30;;
5967;SDS011;3010;51.028;4.170;2023-06-10T01:30:18;9.77;;;9.07;;
5967;SDS011;3010;51.028;4.170;2023-06-10T01:32:41;9.27;;;8.47;;
5967;SDS011;3010;51.028;4.170;2023-06-10T01:35:07;10.50;;;9.30;;
5967;SDS011;3010;51.028;4.170;2023-06-10T01:37:33;10.03;;;9.13;;
5967;SDS011;3010;51.028;4.170;2023-06-10T01:40:00;10.17;;;9.37;;
5967;SDS011;3010;51.028;4.170;2023-06-10T01:42:27;9.33;;;8.73;;
5967;SDS011;3010;51.028;4.170;2023-06-10T01:44:53;9.68;;;8.77;;
5967;SDS011;3010;51.028;4.170;2023-06-10T01:47:20;10.97;;;9.13;;
5967;SDS011;3010;51.028;4.170;2023-06-10T01:49:46;10.10;;;9.20;;
5967;SDS011;3010;51.028;4.170;2023-06-10T01:52:13;10.03;;;9.13;;
5967;SDS011;3010;51.028;4.170;2023-06-10T01:54:39;10.60;;;9.60;;
5967;SDS011;3010;51.028;4.170;2023-06-10T01:57:06;9.80;;;9.00;;
5967;SDS011;3010;51.028;4.170;2023-06-10T01:59:33;10.07;;;9.17;;
5967;SDS011;3010;51.028;4.170;2023-06-10T02:01:59;10.83;;;8.97;;
5967;SDS011;3010;51.028;4.170;2023-06-10T02:04:26;10.20;;;9.40;;
5967;SDS011;3010;51.028;4.170;2023-06-10T02:06:52;10.47;;;9.43;;
5967;SDS011;3010;51.028;4.170;2023-06-10T02:09:19;10.00;;;9.13;;
5967;SDS011;3010;51.028;4.170;2023-06-10T02:11:46;9.77;;;8.87;;
5967;SDS011;3010;51.028;4.170;2023-06-10T02:14:12;12.07;;;9.57;;
5967;SDS011;3010;51.028;4.170;2023-06-10T02:16:39;10.83;;;9.77;;
5967;SDS011;3010;51.028;4.170;2023-06-10T02:19:05;10.67;;;9.67;;
5967;SDS011;3010;51.028;4.170;2023-06-10T02:21:32;10.03;;;9.13;;
5967;SDS011;3010;51.028;4.170;2023-06-10T02:23:59;10.17;;;9.30;;
5967;SDS011;3010;51.028;4.170;2023-06-10T02:26:25;10.70;;;9.67;;
5967;SDS011;3010;51.028;4.170;2023-06-10T02:28:52;10.87;;;9.80;;
5967;SDS011;3010;51.028;4.170;2023-06-10T02:31:18;10.07;;;9.27;;
5967;SDS011;3010;51.028;4.170;2023-06-10T02:33:45;10.30;;;9.50;;
5967;SDS011;3010;51.028;4.170;2023-06-10T02:36:12;10.27;;;9.37;;
5967;SDS011;3010;51.028;4.170;2023-06-10T02:38:39;10.97;;;9.80;;
5967;SDS011;3010;51.028;4.170;2023-06-10T02:41:05;11.37;;;10.37;;
5967;SDS011;3010;51.028;4.170;2023-06-10T02:43:31;9.77;;;8.97;;
5967;SDS011;3010;51.028;4.170;2023-06-10T02:45:58;10.13;;;9.23;;
5967;SDS011;3010;51.028;4.170;2023-06-10T02:48:25;11.30;;;10.03;;
5967;SDS011;3010;51.028;4.170;2023-06-10T02:50:51;11.33;;;10.43;;
5967;SDS011;3010;51.028;4.170;2023-06-10T02:53:21;11.23;;;9.90;;
5967;SDS011;3010;51.028;4.170;2023-06-10T02:55:47;11.27;;;10.37;;
5967;SDS011;3010;51.028;4.170;2023-06-10T02:58:14;11.00;;;10.17;;
5967;SDS011;3010;51.028;4.170;2023-06-10T03:00:41;11.10;;;10.00;;
5967;SDS011;3010;51.028;4.170;2023-06-10T03:03:10;11.13;;;10.23;;
5967;SDS011;3010;51.028;4.170;2023-06-10T03:05:37;11.13;;;10.00;;
5967;SDS011;3010;51.028;4.170;2023-06-10T03:08:04;10.87;;;10.07;;
5967;SDS011;3010;51.028;4.170;2023-06-10T03:10:31;11.40;;;10.30;;
5967;SDS011;3010;51.028;4.170;2023-06-10T03:12:58;11.57;;;10.50;;
5967;SDS011;3010;51.028;4.170;2023-06-10T03:15:26;14.27;;;10.73;;
5967;SDS011;3010;51.028;4.170;2023-06-10T03:17:52;12.13;;;10.93;;
5967;SDS011;3010;51.028;4.170;2023-06-10T03:20:19;13.45;;;11.00;;
5967;SDS011;3010;51.028;4.170;2023-06-10T03:22:48;12.50;;;10.50;;
5967;SDS011;3010;51.028;4.170;2023-06-10T03:25:16;12.17;;;10.97;;
5967;SDS011;3010;51.028;4.170;2023-06-10T03:27:43;11.47;;;10.37;;
5967;SDS011;3010;51.028;4.170;2023-06-10T03:30:10;11.43;;;10.33;;
5967;SDS011;3010;51.028;4.170;2023-06-10T03:32:37;11.80;;;10.60;;
5967;SDS011;3010;51.028;4.170;2023-06-10T03:35:04;12.13;;;11.05;;
5967;SDS011;3010;51.028;4.170;2023-06-10T03:37:32;12.02;;;10.88;;
5967;SDS011;3010;51.028;4.170;2023-06-10T03:39:59;11.87;;;11.03;;
5967;SDS011;3010;51.028;4.170;2023-06-10T03:42:27;12.33;;;11.00;;
5967;SDS011;3010;51.028;4.170;2023-06-10T03:44:55;12.70;;;11.43;;
5967;SDS011;3010;51.028;4.170;2023-06-10T03:47:23;12.00;;;10.90;;
5967;SDS011;3010;51.028;4.170;2023-06-10T03:49:51;11.70;;;10.70;;
5967;SDS011;3010;51.028;4.170;2023-06-10T03:52:19;15.77;;;11.13;;
5967;SDS011;3010;51.028;4.170;2023-06-10T03:54:46;14.80;;;11.10;;
5967;SDS011;3010;51.028;4.170;2023-06-10T03:57:13;12.43;;;11.17;;
5967;SDS011;3010;51.028;4.170;2023-06-10T03:59:41;12.23;;;11.12;;
5967;SDS011;3010;51.028;4.170;2023-06-10T04:02:07;12.43;;;11.33;;
5967;SDS011;3010;51.028;4.170;2023-06-10T04:04:46;16.10;;;11.73;;
5967;SDS011;3010;51.028;4.170;2023-06-10T04:07:13;11.90;;;10.83;;
5967;SDS011;3010;51.028;4.170;2023-06-10T04:09:40;12.50;;;11.30;;
5967;SDS011;3010;51.028;4.170;2023-06-10T04:12:07;12.10;;;11.10;;
5967;SDS011;3010;51.028;4.170;2023-06-10T04:14:34;13.07;;;11.17;;
5967;SDS011;3010;51.028;4.170;2023-06-10T04:17:04;12.75;;;10.77;;
5967;SDS011;3010;51.028;4.170;2023-06-10T04:19:29;15.27;;;11.50;;
5967;SDS011;3010;51.028;4.170;2023-06-10T04:21:56;12.53;;;11.53;;
5967;SDS011;3010;51.028;4.170;2023-06-10T04:24:24;14.37;;;12.13;;
5967;SDS011;3010;51.028;4.170;2023-06-10T04:26:51;12.23;;;11.03;;
5967;SDS011;3010;51.028;4.170;2023-06-10T04:29:19;12.33;;;11.10;;
5967;SDS011;3010;51.028;4.170;2023-06-10T04:31:46;12.73;;;11.57;;
5967;SDS011;3010;51.028;4.170;2023-06-10T04:34:13;12.20;;;11.17;;
5967;SDS011;3010;51.028;4.170;2023-06-10T04:36:41;12.23;;;11.13;;
5967;SDS011;3010;51.028;4.170;2023-06-10T04:39:09;12.40;;;11.40;;
5967;SDS011;3010;51.028;4.170;2023-06-10T04:41:36;12.90;;;11.80;;
5967;SDS011;3010;51.028;4.170;2023-06-10T04:44:03;13.23;;;11.80;;
5967;SDS011;3010;51.028;4.170;2023-06-10T04:46:30;16.63;;;11.77;;
5967;SDS011;3010;51.028;4.170;2023-06-10T04:48:57;13.00;;;11.57;;
5967;SDS011;3010;51.028;4.170;2023-06-10T04:51:23;14.70;;;11.70;;
5967;SDS011;3010;51.028;4.170;2023-06-10T04:53:50;15.23;;;11.45;;
5967;SDS011;3010;51.028;4.170;2023-06-10T04:56:18;13.43;;;11.80;;
5967;SDS011;3010;51.028;4.170;2023-06-10T04:58:45;12.97;;;10.83;;
5967;SDS011;3010;51.028;4.170;2023-06-10T05:01:12;14.97;;;11.63;;
5967;SDS011;3010;51.028;4.170;2023-06-10T05:03:38;13.40;;;11.90;;
5967;SDS011;3010;51.028;4.170;2023-06-10T05:06:06;12.75;;;11.02;;
5967;SDS011;3010;51.028;4.170;2023-06-10T05:08:33;12.60;;;11.30;;
5967;SDS011;3010;51.028;4.170;2023-06-10T05:11:00;12.50;;;11.40;;
5967;SDS011;3010;51.028;4.170;2023-06-10T05:13:27;12.43;;;11.43;;
5967;SDS011;3010;51.028;4.170;2023-06-10T05:15:54;12.80;;;11.63;;
5967;SDS011;3010;51.028;4.170;2023-06-10T05:18:21;12.93;;;11.83;;
5967;SDS011;3010;51.028;4.170;2023-06-10T05:20:48;12.13;;;11.13;;
5967;SDS011;3010;51.028;4.170;2023-06-10T05:23:15;13.13;;;11.90;;
5967;SDS011;3010;51.028;4.170;2023-06-10T05:25:42;13.13;;;11.93;;
5967;SDS011;3010;51.028;4.170;2023-06-10T05:28:09;12.90;;;11.20;;
5967;SDS011;3010;51.028;4.170;2023-06-10T05:30:36;12.65;;;11.55;;
5967;SDS011;3010;51.028;4.170;2023-06-10T05:33:04;13.03;;;11.70;;
5967;SDS011;3010;51.028;4.170;2023-06-10T05:35:30;11.67;;;10.67;;
5967;SDS011;3010;51.028;4.170;2023-06-10T05:37:57;12.53;;;11.30;;
5967;SDS011;3010;51.028;4.170;2023-06-10T05:40:25;12.03;;;11.13;;
5967;SDS011;3010;51.028;4.170;2023-06-10T05:42:53;11.52;;;10.68;;
5967;SDS011;3010;51.028;4.170;2023-06-10T05:45:19;13.03;;;11.83;;
5967;SDS011;3010;51.028;4.170;2023-06-10T05:47:47;12.20;;;10.93;;
5967;SDS011;3010;51.028;4.170;2023-06-10T05:50:14;13.50;;;11.60;;
5967;SDS011;3010;51.028;4.170;2023-06-10T05:52:41;12.50;;;11.30;;
5967;SDS011;3010;51.028;4.170;2023-06-10T05:55:08;13.83;;;10.90;;
5967;SDS011;3010;51.028;4.170;2023-06-10T05:57:35;12.90;;;11.63;;
5967;SDS011;3010;51.028;4.170;2023-06-10T06:00:02;11.65;;;10.73;;
5967;SDS011;3010;51.028;4.170;2023-06-10T06:02:31;12.43;;;10.97;;
5967;SDS011;3010;51.028;4.170;2023-06-10T06:04:59;13.23;;;11.23;;
5967;SDS011;3010;51.028;4.170;2023-06-10T06:07:26;11.80;;;10.60;;
5967;SDS011;3010;51.028;4.170;2023-06-10T06:09:54;14.53;;;11.53;;
5967;SDS011;3010;51.028;4.170;2023-06-10T06:12:23;12.13;;;11.17;;
5967;SDS011;3010;51.028;4.170;2023-06-10T06:14:50;12.50;;;11.13;;
5967;SDS011;3010;51.028;4.170;2023-06-10T06:17:17;11.17;;;10.23;;
5967;SDS011;3010;51.028;4.170;2023-06-10T06:19:44;12.00;;;10.80;;
5967;SDS011;3010;51.028;4.170;2023-06-10T06:22:12;11.60;;;10.43;;
5967;SDS011;3010;51.028;4.170;2023-06-10T06:24:41;12.13;;;10.67;;
5967;SDS011;3010;51.028;4.170;2023-06-10T06:27:09;11.00;;;10.20;;
5967;SDS011;3010;51.028;4.170;2023-06-10T06:29:37;10.60;;;9.73;;
5967;SDS011;3010;51.028;4.170;2023-06-10T06:32:05;10.73;;;9.77;;
5967;SDS011;3010;51.028;4.170;2023-06-10T06:34:32;10.93;;;9.93;;
5967;SDS011;3010;51.028;4.170;2023-06-10T06:37:00;11.13;;;10.10;;
5967;SDS011;3010;51.028;4.170;2023-06-10T06:39:27;10.50;;;9.47;;
5967;SDS011;3010;51.028;4.170;2023-06-10T06:41:54;10.27;;;9.48;;
5967;SDS011;3010;51.028;4.170;2023-06-10T06:44:22;10.27;;;9.32;;
5967;SDS011;3010;51.028;4.170;2023-06-10T06:46:50;10.00;;;9.17;;
5967;SDS011;3010;51.028;4.170;2023-06-10T06:49:16;11.03;;;9.60;;
5967;SDS011;3010;51.028;4.170;2023-06-10T06:51:43;11.17;;;10.20;;
5967;SDS011;3010;51.028;4.170;2023-06-10T06:54:11;10.33;;;9.43;;
5967;SDS011;3010;51.028;4.170;2023-06-10T06:56:38;10.73;;;9.67;;
5967;SDS011;3010;51.028;4.170;2023-06-10T06:59:06;10.93;;;9.83;;
5967;SDS011;3010;51.028;4.170;2023-06-10T07:01:34;10.13;;;9.13;;
5967;SDS011;3010;51.028;4.170;2023-06-10T07:04:02;9.97;;;8.97;;
5967;SDS011;3010;51.028;4.170;2023-06-10T07:06:30;9.70;;;8.80;;
5967;SDS011;3010;51.028;4.170;2023-06-10T07:09:00;10.35;;;9.27;;
5967;SDS011;3010;51.028;4.170;2023-06-10T07:11:26;10.00;;;9.13;;
5967;SDS011;3010;51.028;4.170;2023-06-10T07:13:54;9.53;;;8.63;;
5967;SDS011;3010;51.028;4.170;2023-06-10T07:16:20;9.63;;;8.83;;
5967;SDS011;3010;51.028;4.170;2023-06-10T07:18:48;11.73;;;9.60;;
5967;SDS011;3010;51.028;4.170;2023-06-10T07:21:14;8.80;;;8.10;;
5967;SDS011;3010;51.028;4.170;2023-06-10T07:23:42;11.13;;;9.10;;
5967;SDS011;3010;51.028;4.170;2023-06-10T07:26:09;10.60;;;9.23;;
5967;SDS011;3010;51.028;4.170;2023-06-10T07:28:36;9.37;;;8.60;;
5967;SDS011;3010;51.028;4.170;2023-06-10T07:31:03;9.60;;;8.40;;
5967;SDS011;3010;51.028;4.170;2023-06-10T07:33:29;9.77;;;8.87;;
5967;SDS011;3010;51.028;4.170;2023-06-10T07:35:56;9.32;;;8.60;;
5967;SDS011;3010;51.028;4.170;2023-06-10T07:38:22;11.83;;;8.43;;
5967;SDS011;3010;51.028;4.170;2023-06-10T07:40:49;9.68;;;8.88;;
5967;SDS011;3010;51.028;4.170;2023-06-10T07:43:16;8.93;;;8.30;;
5967;SDS011;3010;51.028;4.170;2023-06-10T07:45:42;9.18;;;8.48;;
5967;SDS011;3010;51.028;4.170;2023-06-10T07:48:09;8.50;;;7.80;;
5967;SDS011;3010;51.028;4.170;2023-06-10T07:50:35;9.77;;;8.77;;
5967;SDS011;3010;51.028;4.170;2023-06-10T07:53:02;9.07;;;7.80;;
5967;SDS011;3010;51.028;4.170;2023-06-10T07:55:28;8.93;;;8.13;;
5967;SDS011;3010;51.028;4.170;2023-06-10T07:57:55;10.87;;;8.47;;
5967;SDS011;3010;51.028;4.170;2023-06-10T08:00:22;9.17;;;8.30;;
5967;SDS011;3010;51.028;4.170;2023-06-10T08:02:48;8.27;;;7.57;;
5967;SDS011;3010;51.028;4.170;2023-06-10T08:05:15;8.87;;;8.07;;
5967;SDS011;3010;51.028;4.170;2023-06-10T08:07:41;10.60;;;8.20;;
5967;SDS011;3010;51.028;4.170;2023-06-10T08:10:08;7.83;;;7.23;;
5967;SDS011;3010;51.028;4.170;2023-06-10T08:12:35;8.10;;;7.40;;
5967;SDS011;3010;51.028;4.170;2023-06-10T08:15:01;11.73;;;7.40;;
5967;SDS011;3010;51.028;4.170;2023-06-10T08:17:28;8.13;;;7.43;;
5967;SDS011;3010;51.028;4.170;2023-06-10T08:19:54;7.90;;;7.10;;
5967;SDS011;3010;51.028;4.170;2023-06-10T08:22:21;7.77;;;7.23;;
5967;SDS011;3010;51.028;4.170;2023-06-10T08:24:48;7.60;;;6.90;;
5967;SDS011;3010;51.028;4.170;2023-06-10T08:27:14;8.10;;;7.10;;
5967;SDS011;3010;51.028;4.170;2023-06-10T08:29:41;8.77;;;7.87;;
5967;SDS011;3010;51.028;4.170;2023-06-10T08:32:07;7.97;;;7.37;;
5967;SDS011;3010;51.028;4.170;2023-06-10T08:34:34;7.20;;;6.80;;
5967;SDS011;3010;51.028;4.170;2023-06-10T08:37:03;7.40;;;6.90;;
5967;SDS011;3010;51.028;4.170;2023-06-10T08:39:30;7.20;;;6.70;;
5967;SDS011;3010;51.028;4.170;2023-06-10T08:43:03;11.60;;;6.73;;
5967;SDS011;3010;51.028;4.170;2023-06-10T08:44:42;7.50;;;7.00;;
5967;SDS011;3010;51.028;4.170;2023-06-10T08:47:18;7.37;;;6.53;;
5967;SDS011;3010;51.028;4.170;2023-06-10T08:49:37;7.70;;;7.07;;
5967;SDS011;3010;51.028;4.170;2023-06-10T08:52:02;7.13;;;6.53;;
5967;SDS011;3010;51.028;4.170;2023-06-10T08:54:30;6.97;;;6.37;;
5967;SDS011;3010;51.028;4.170;2023-06-10T08:56:55;7.20;;;6.78;;
5967;SDS011;3010;51.028;4.170;2023-06-10T08:59:22;6.60;;;6.20;;
5967;SDS011;3010;51.028;4.170;2023-06-10T09:01:48;7.13;;;6.40;;
5967;SDS011;3010;51.028;4.170;2023-06-10T09:04:15;8.47;;;6.10;;
5967;SDS011;3010;51.028;4.170;2023-06-10T09:06:42;6.80;;;6.20;;
5967;SDS011;3010;51.028;4.170;2023-06-10T09:09:08;7.20;;;6.57;;
5967;SDS011;3010;51.028;4.170;2023-06-10T09:11:35;6.53;;;6.00;;
5967;SDS011;3010;51.028;4.170;2023-06-10T09:14:01;6.73;;;6.33;;
5967;SDS011;3010;51.028;4.170;2023-06-10T09:16:28;7.03;;;6.53;;
5967;SDS011;3010;51.028;4.170;2023-06-10T09:18:55;6.93;;;6.53;;
5967;SDS011;3010;51.028;4.170;2023-06-10T09:21:24;6.47;;;5.87;;
5967;SDS011;3010;51.028;4.170;2023-06-10T09:23:51;6.97;;;6.43;;
5967;SDS011;3010;51.028;4.170;2023-06-10T09:26:18;6.80;;;6.40;;
5967;SDS011;3010;51.028;4.170;2023-06-10T09:28:44;6.50;;;6.00;;
5967;SDS011;3010;51.028;4.170;2023-06-10T09:31:11;6.47;;;5.90;;
5967;SDS011;3010;51.028;4.170;2023-06-10T09:33:38;6.13;;;5.63;;
5967;SDS011;3010;51.028;4.170;2023-06-10T09:36:06;5.87;;;5.57;;
5967;SDS011;3010;51.028;4.170;2023-06-10T09:38:33;6.60;;;5.85;;
5967;SDS011;3010;51.028;4.170;2023-06-10T09:41:00;5.10;;;4.90;;
5967;SDS011;3010;51.028;4.170;2023-06-10T09:43:39;5.23;;;4.93;;
5967;SDS011;3010;51.028;4.170;2023-06-10T09:46:05;5.97;;;5.60;;
5967;SDS011;3010;51.028;4.170;2023-06-10T09:48:34;5.83;;;5.47;;
5967;SDS011;3010;51.028;4.170;2023-06-10T09:51:01;6.70;;;6.20;;
5967;SDS011;3010;51.028;4.170;2023-06-10T09:53:27;6.23;;;5.80;;
5967;SDS011;3010;51.028;4.170;2023-06-10T09:55:54;5.50;;;5.20;;
5967;SDS011;3010;51.028;4.170;2023-06-10T09:58:33;6.45;;;5.50;;
5967;SDS011;3010;51.028;4.170;2023-06-10T10:00:52;6.10;;;5.43;;
5967;SDS011;3010;51.028;4.170;2023-06-10T10:03:21;5.83;;;5.50;;
5967;SDS011;3010;51.028;4.170;2023-06-10T10:05:40;6.80;;;5.40;;
5967;SDS011;3010;51.028;4.170;2023-06-10T10:08:07;7.77;;;6.07;;
5967;SDS011;3010;51.028;4.170;2023-06-10T10:10:34;6.77;;;5.20;;
5967;SDS011;3010;51.028;4.170;2023-06-10T10:13:01;6.60;;;6.00;;
5967;SDS011;3010;51.028;4.170;2023-06-10T10:15:28;5.67;;;5.30;;
5967;SDS011;3010;51.028;4.170;2023-06-10T10:17:56;5.77;;;5.27;;
5967;SDS011;3010;51.028;4.170;2023-06-10T10:20:33;5.87;;;5.20;;
5967;SDS011;3010;51.028;4.170;2023-06-10T10:23:00;6.53;;;5.43;;
5967;SDS011;3010;51.028;4.170;2023-06-10T10:25:27;6.33;;;5.80;;
5967;SDS011;3010;51.028;4.170;2023-06-10T10:28:02;6.40;;;5.80;;
5967;SDS011;3010;51.028;4.170;2023-06-10T10:30:25;7.23;;;6.07;;
5967;SDS011;3010;51.028;4.170;2023-06-10T10:32:55;10.03;;;6.00;;
5967;SDS011;3010;51.028;4.170;2023-06-10T10:35:21;6.57;;;5.93;;
5967;SDS011;3010;51.028;4.170;2023-06-10T10:37:48;6.93;;;6.22;;
5967;SDS011;3010;51.028;4.170;2023-06-10T10:40:14;6.20;;;5.70;;
5967;SDS011;3010;51.028;4.170;2023-06-10T10:42:41;7.27;;;6.00;;
5967;SDS011;3010;51.028;4.170;2023-06-10T10:45:07;6.07;;;5.57;;
5967;SDS011;3010;51.028;4.170;2023-06-10T10:47:34;7.05;;;5.78;;
5967;SDS011;3010;51.028;4.170;2023-06-10T10:50:00;6.87;;;5.73;;
5967;SDS011;3010;51.028;4.170;2023-06-10T10:52:28;6.93;;;5.70;;
5967;SDS011;3010;51.028;4.170;2023-06-10T10:54:54;6.53;;;6.03;;
5967;SDS011;3010;51.028;4.170;2023-06-10T10:57:21;6.33;;;5.63;;
5967;SDS011;3010;51.028;4.170;2023-06-10T10:59:54;6.50;;;5.85;;
5967;SDS011;3010;51.028;4.170;2023-06-10T11:02:41;5.90;;;5.37;;
5967;SDS011;3010;51.028;4.170;2023-06-10T11:04:57;6.10;;;5.37;;
5967;SDS011;3010;51.028;4.170;2023-06-10T11:07:25;8.37;;;5.53;;
5967;SDS011;3010;51.028;4.170;2023-06-10T11:10:00;6.13;;;5.70;;
5967;SDS011;3010;51.028;4.170;2023-06-10T11:13:30;7.65;;;6.18;;
5967;SDS011;3010;51.028;4.170;2023-06-10T11:15:14;7.07;;;5.70;;
5967;SDS011;3010;51.028;4.170;2023-06-10T11:17:37;7.97;;;6.00;;
5967;SDS011;3010;51.028;4.170;2023-06-10T11:20:04;6.40;;;5.80;;
5967;SDS011;3010;51.028;4.170;2023-06-10T11:22:31;8.67;;;5.67;;
5967;SDS011;3010;51.028;4.170;2023-06-10T11:24:57;7.90;;;5.83;;
5967;SDS011;3010;51.028;4.170;2023-06-10T11:27:24;7.07;;;5.70;;
5967;SDS011;3010;51.028;4.170;2023-06-10T11:29:57;5.20;;;5.00;;
5967;SDS011;3010;51.028;4.170;2023-06-10T11:32:25;6.22;;;5.62;;
5967;SDS011;3010;51.028;4.170;2023-06-10T11:34:53;6.53;;;5.90;;
5967;SDS011;3010;51.028;4.170;2023-06-10T11:37:20;6.60;;;5.60;;
5967;SDS011;3010;51.028;4.170;2023-06-10T11:39:46;5.70;;;5.40;;
5967;SDS011;3010;51.028;4.170;2023-06-10T11:42:12;6.40;;;5.83;;
5967;SDS011;3010;51.028;4.170;2023-06-10T11:44:39;18.25;;;6.62;;
5967;SDS011;3010;51.028;4.170;2023-06-10T11:47:06;7.60;;;6.10;;
5967;SDS011;3010;51.028;4.170;2023-06-10T11:49:32;8.67;;;5.90;;
5967;SDS011;3010;51.028;4.170;2023-06-10T11:51:59;6.67;;;6.17;;
5967;SDS011;3010;51.028;4.170;2023-06-10T11:54:25;6.20;;;5.70;;
5967;SDS011;3010;51.028;4.170;2023-06-10T11:56:56;6.30;;;5.70;;
5967;SDS011;3010;51.028;4.170;2023-06-10T11:59:19;8.80;;;5.63;;
5967;SDS011;3010;51.028;4.170;2023-06-10T12:01:45;6.63;;;6.07;;
5967;SDS011;3010;51.028;4.170;2023-06-10T12:04:15;6.53;;;6.10;;
5967;SDS011;3010;51.028;4.170;2023-06-10T12:06:42;6.33;;;5.73;;
5967;SDS011;3010;51.028;4.170;2023-06-10T12:09:14;9.13;;;5.90;;
5967;SDS011;3010;51.028;4.170;2023-06-10T12:11:54;6.20;;;5.60;;
5967;SDS011;3010;51.028;4.170;2023-06-10T12:17:23;5.80;;;5.53;;
5967;SDS011;3010;51.028;4.170;2023-06-10T12:19:49;6.43;;;5.80;;
5967;SDS011;3010;51.028;4.170;2023-06-10T12:22:15;6.80;;;6.30;;
5967;SDS011;3010;51.028;4.170;2023-06-10T12:24:45;7.20;;;6.57;;
5967;SDS011;3010;51.028;4.170;2023-06-10T12:27:11;5.77;;;5.47;;
5967;SDS011;3010;51.028;4.170;2023-06-10T12:29:38;6.40;;;5.80;;
5967;SDS011;3010;51.028;4.170;2023-06-10T12:32:04;6.23;;;5.77;;
5967;SDS011;3010;51.028;4.170;2023-06-10T12:34:35;7.63;;;5.93;;
5967;SDS011;3010;51.028;4.170;2023-06-10T12:37:01;6.60;;;6.00;;
5967;SDS011;3010;51.028;4.170;2023-06-10T12:39:27;6.47;;;5.97;;
5967;SDS011;3010;51.028;4.170;2023-06-10T12:41:54;6.40;;;5.83;;
5967;SDS011;3010;51.028;4.170;2023-06-10T12:44:30;5.80;;;5.30;;
5967;SDS011;3010;51.028;4.170;2023-06-10T12:46:56;6.13;;;5.73;;
5967;SDS011;3010;51.028;4.170;2023-06-10T12:49:23;7.25;;;6.05;;
5967;SDS011;3010;51.028;4.170;2023-06-10T12:51:49;8.13;;;5.80;;
5967;SDS011;3010;51.028;4.170;2023-06-10T12:54:16;12.82;;;6.12;;
5967;SDS011;3010;51.028;4.170;2023-06-10T12:56:42;13.53;;;6.30;;
5967;SDS011;3010;51.028;4.170;2023-06-10T12:59:09;10.80;;;5.97;;
5967;SDS011;3010;51.028;4.170;2023-06-10T13:01:37;7.07;;;5.73;;
5967;SDS011;3010;51.028;4.170;2023-06-10T13:04:04;9.38;;;5.75;;
5967;SDS011;3010;51.028;4.170;2023-06-10T13:06:29;7.33;;;5.90;;
5967;SDS011;3010;51.028;4.170;2023-06-10T13:08:56;7.07;;;6.37;;
5967;SDS011;3010;51.028;4.170;2023-06-10T13:11:22;6.17;;;5.63;;
5967;SDS011;3010;51.028;4.170;2023-06-10T13:13:49;5.90;;;5.60;;
5967;SDS011;3010;51.028;4.170;2023-06-10T13:16:16;8.33;;;5.50;;
5967;SDS011;3010;51.028;4.170;2023-06-10T13:18:42;48.80;;;9.23;;
5967;SDS011;3010;51.028;4.170;2023-06-10T13:21:09;9.57;;;6.10;;
5967;SDS011;3010;51.028;4.170;2023-06-10T13:23:35;8.13;;;5.80;;
5967;SDS011;3010;51.028;4.170;2023-06-10T13:26:02;5.80;;;5.30;;
5967;SDS011;3010;51.028;4.170;2023-06-10T13:28:29;7.10;;;5.57;;
5967;SDS011;3010;51.028;4.170;2023-06-10T13:30:55;6.10;;;5.70;;
5967;SDS011;3010;51.028;4.170;2023-06-10T13:33:22;9.73;;;6.27;;
5967;SDS011;3010;51.028;4.170;2023-06-10T13:35:48;5.67;;;5.23;;
5967;SDS011;3010;51.028;4.170;2023-06-10T13:38:15;5.70;;;5.30;;
5967;SDS011;3010;51.028;4.170;2023-06-10T13:40:42;6.18;;;5.78;;
5967;SDS011;3010;51.028;4.170;2023-06-10T13:43:08;11.23;;;5.73;;
5967;SDS011;3010;51.028;4.170;2023-06-10T13:45:35;5.80;;;5.40;;
5967;SDS011;3010;51.028;4.170;2023-06-10T13:48:01;9.27;;;5.77;;
5967;SDS011;3010;51.028;4.170;2023-06-10T13:50:28;6.63;;;6.00;;
5967;SDS011;3010;51.028;4.170;2023-06-10T13:52:54;5.90;;;5.30;;
5967;SDS011;3010;51.028;4.170;2023-06-10T13:55:21;7.43;;;5.50;;
5967;SDS011;3010;51.028;4.170;2023-06-10T13:57:48;5.83;;;5.30;;
5967;SDS011;3010;51.028;4.170;2023-06-10T14:00:14;6.87;;;6.23;;
5967;SDS011;3010;51.028;4.170;2023-06-10T14:02:41;5.77;;;5.30;;
5967;SDS011;3010;51.028;4.170;2023-06-10T14:05:08;5.70;;;5.40;;
5967;SDS011;3010;51.028;4.170;2023-06-10T14:07:34;6.00;;;5.43;;
5967;SDS011;3010;51.028;4.170;2023-06-10T14:10:01;5.80;;;5.40;;
5967;SDS011;3010;51.028;4.170;2023-06-10T14:12:28;6.27;;;5.87;;
5967;SDS011;3010;51.028;4.170;2023-06-10T14:14:54;8.67;;;5.53;;
5967;SDS011;3010;51.028;4.170;2023-06-10T14:17:21;5.90;;;5.57;;
5967;SDS011;3010;51.028;4.170;2023-06-10T14:19:47;6.20;;;5.67;;
5967;SDS011;3010;51.028;4.170;2023-06-10T14:22:14;6.43;;;5.90;;
5967;SDS011;3010;51.028;4.170;2023-06-10T14:24:41;5.90;;;5.50;;
5967;SDS011;3010;51.028;4.170;2023-06-10T14:27:07;5.97;;;5.57;;
5967;SDS011;3010;51.028;4.170;2023-06-10T14:29:34;5.97;;;5.57;;
5967;SDS011;3010;51.028;4.170;2023-06-10T14:32:01;6.27;;;5.73;;
5967;SDS011;3010;51.028;4.170;2023-06-10T14:34:27;6.43;;;5.80;;
5967;SDS011;3010;51.028;4.170;2023-06-10T14:36:54;5.72;;;5.32;;
5967;SDS011;3010;51.028;4.170;2023-06-10T14:39:20;6.18;;;5.68;;
5967;SDS011;3010;51.028;4.170;2023-06-10T14:41:47;6.00;;;5.70;;
5967;SDS011;3010;51.028;4.170;2023-06-10T14:44:14;6.03;;;5.53;;
5967;SDS011;3010;51.028;4.170;2023-06-10T14:46:40;8.03;;;5.90;;
5967;SDS011;3010;51.028;4.170;2023-06-10T14:49:07;8.27;;;6.47;;
5967;SDS011;3010;51.028;4.170;2023-06-10T14:51:34;6.23;;;5.80;;
5967;SDS011;3010;51.028;4.170;2023-06-10T14:54:00;6.77;;;6.17;;
5967;SDS011;3010;51.028;4.170;2023-06-10T14:56:27;5.97;;;5.57;;
5967;SDS011;3010;51.028;4.170;2023-06-10T14:58:53;6.20;;;5.80;;
5967;SDS011;3010;51.028;4.170;2023-06-10T15:01:20;6.47;;;5.82;;
5967;SDS011;3010;51.028;4.170;2023-06-10T15:03:46;6.10;;;5.60;;
5967;SDS011;3010;51.028;4.170;2023-06-10T15:06:13;8.40;;;6.00;;
5967;SDS011;3010;51.028;4.170;2023-06-10T15:08:40;6.50;;;5.77;;
5967;SDS011;3010;51.028;4.170;2023-06-10T15:11:06;6.70;;;6.10;;